This is the latest recevied weather packets stored in our database for station/object K8BCO. If no packets are shown the sender has not sent any weather packets the latest 10 day(s).
| Time | Temp. | Humidity | Pressure | Rain* | Wind** | Luminosity | Snow |
|---|---|---|---|---|---|---|---|
| 1777831519 | 15.56° C | 58% | 1001.2 hPa | 0 mm | - | 93 W/m² | - |
| 1777830919 | 17.22° C | 52% | 1001.1 hPa | 0 mm | - | 233 W/m² | - |
| 1777830316 | 17.22° C | 47% | 1001.2 hPa | 0 mm | - | 282 W/m² | - |
| 1777829716 | 17.22° C | 47% | 1001.2 hPa | 0 mm | - | 160 W/m² | - |
| 1777829116 | 17.22° C | 47% | 1001.3 hPa | 0 mm | - | 270 W/m² | - |
| 1777828516 | 17.22° C | 48% | 1001.4 hPa | 0 mm | - | 346 W/m² | - |
| 1777827917 | 17.22° C | 47% | 1001.5 hPa | 0 mm | - | 441 W/m² | - |
| 1777827316 | 17.78° C | 49% | 1001.6 hPa | 0 mm | - | 374 W/m² | - |
| 1777826717 | 17.78° C | 49% | 1001.7 hPa | 0 mm | - | 497 W/m² | - |
| 1777826117 | 16.67° C | 50% | 1001.8 hPa | 0 mm | - | 693 W/m² | - |
| 1777825517 | 16.11° C | 55% | 1002.1 hPa | 0 mm | - | 287 W/m² | - |
| 1777824917 | 16.11° C | 54% | 1002.1 hPa | 0 mm | - | 883 W/m² | - |
| 1777824317 | 15° C | 58% | 1002.4 hPa | 0 mm | - | 447 W/m² | - |
| 1777823717 | 14.44° C | 60% | 1002.5 hPa | 0 mm | - | 359 W/m² | - |
| 1777823117 | 13.89° C | 63% | 1002.6 hPa | 0 mm | - | 247 W/m² | - |
| 1777822518 | 13.89° C | 62% | 1002.7 hPa | 0 mm | - | 229 W/m² | - |
| 1777821918 | 13.89° C | 63% | 1002.8 hPa | 0 mm | - | 138 W/m² | - |
| 1777821318 | 13.89° C | 62% | 1002.9 hPa | 0 mm | - | 138 W/m² | - |
| 1777820718 | 13.89° C | 64% | 1002.9 hPa | 0 mm | - | 148 W/m² | - |
| 1777820118 | 14.44° C | 61% | 1003 hPa | 0 mm | - | 136 W/m² | - |
| 1777819518 | 14.44° C | 61% | 1003.1 hPa | 0 mm | - | 319 W/m² | - |
| 1777818916 | 14.44° C | 61% | 1003.2 hPa | 0 mm | - | 260 W/m² | - |
| 1777818319 | 13.89° C | 62% | 1003.2 hPa | 0 mm | - | 358 W/m² | - |
| 1777817717 | 13.89° C | 67% | 1003.3 hPa | 0 mm | - | 245 W/m² | - |
| 1777817116 | 13.89° C | 66% | 1003.2 hPa | 0 mm | - | 306 W/m² | - |
* Rain latest hour (hover to see other rain measurements)
** Current wind speed in m/s (hover to see current wind gust speed)